Time;durP1;ratioP1;P1;durP2;ratioP2;P2;SDS_P1;SDS_P2;PMS_P1;PMS_P2;Temp;Humidity;BMP_temperature;BMP_pressure;BME280_temperature;BME280_humidity;BME280_pressure;Samples;Min_cycle;Max_cycle;Signal;HPM_P1;HPM_P2
2023/12/24 00:00:29;;;;;;;3.15;1.20;;;11.00;94.60;;;;;;5020686;28;20563;-66
2023/12/24 00:02:54;;;;;;;3.50;0.90;;;11.00;94.60;;;;;;5022574;28;20075;-65
2023/12/24 00:05:20;;;;;;;2.72;1.00;;;11.00;94.50;;;;;;5020826;28;20025;-65
2023/12/24 00:07:45;;;;;;;2.20;0.95;;;11.00;94.60;;;;;;5022907;28;20045;-67
2023/12/24 00:10:11;;;;;;;3.50;1.13;;;11.00;94.60;;;;;;5023409;28;20037;-66
2023/12/24 00:12:37;;;;;;;3.22;1.00;;;11.10;94.60;;;;;;5025360;28;20041;-64
2023/12/24 00:15:04;;;;;;;3.28;0.90;;;11.10;94.50;;;;;;5023891;28;20080;-65
2023/12/24 00:17:31;;;;;;;2.63;1.10;;;11.00;94.50;;;;;;5023944;28;20060;-67
2023/12/24 00:19:57;;;;;;;2.67;0.90;;;11.10;94.50;;;;;;5026536;28;20021;-65
2023/12/24 00:22:23;;;;;;;2.42;1.00;;;11.10;94.50;;;;;;5021237;28;20048;-66
2023/12/24 00:24:49;;;;;;;2.67;0.90;;;11.10;94.50;;;;;;5023954;28;20057;-67
2023/12/24 00:27:15;;;;;;;2.13;0.90;;;11.10;94.60;;;;;;5027384;28;20053;-65
2023/12/24 00:29:40;;;;;;;2.90;1.05;;;11.10;94.50;;;;;;5023308;28;20600;-66
2023/12/24 00:32:06;;;;;;;1.35;0.82;;;11.00;94.40;;;;;;5024356;28;20036;-67
2023/12/24 00:34:31;;;;;;;2.47;0.75;;;11.00;94.50;;;;;;5025299;28;20041;-65
2023/12/24 00:36:57;;;;;;;2.03;0.85;;;11.10;94.50;;;;;;5026158;28;20078;-65
2023/12/24 00:39:23;;;;;;;2.47;0.90;;;11.10;94.40;;;;;;5024143;28;20388;-66
2023/12/24 00:41:48;;;;;;;2.25;0.82;;;11.10;94.40;;;;;;5024565;28;20025;-67
2023/12/24 00:44:14;;;;;;;2.70;0.85;;;11.10;94.40;;;;;;5028057;28;20033;-66
2023/12/24 00:46:39;;;;;;;2.58;0.80;;;11.10;94.40;;;;;;5027033;28;20168;-66
2023/12/24 00:49:05;;;;;;;4.28;0.93;;;11.10;94.40;;;;;;5030354;28;20092;-67
2023/12/24 00:51:30;;;;;;;1.42;0.80;;;11.10;94.30;;;;;;5027536;28;20108;-67
2023/12/24 00:53:56;;;;;;;2.92;1.13;;;11.10;94.30;;;;;;5032211;28;20148;-66
2023/12/24 00:56:21;;;;;;;3.63;0.98;;;11.10;94.20;;;;;;5024779;28;20068;-66
2023/12/24 00:58:47;;;;;;;1.25;0.75;;;11.10;94.20;;;;;;5030661;28;20033;-67
2023/12/24 01:01:12;;;;;;;1.02;0.60;;;11.10;94.30;;;;;;5027508;28;20021;-65
2023/12/24 01:03:38;;;;;;;2.92;1.00;;;11.10;94.20;;;;;;5027973;28;20029;-66
2023/12/24 01:06:04;;;;;;;1.30;0.80;;;11.10;94.20;;;;;;5026418;28;20014;-65
2023/12/24 01:08:29;;;;;;;1.20;0.63;;;11.10;94.20;;;;;;5027033;28;20108;-66
2023/12/24 01:10:55;;;;;;;2.58;0.80;;;11.10;94.20;;;;;;5026929;28;20061;-67
2023/12/24 01:13:20;;;;;;;2.30;0.80;;;11.10;94.20;;;;;;5028557;28;20053;-67
2023/12/24 01:15:46;;;;;;;2.05;0.90;;;11.10;94.20;;;;;;5026247;28;20095;-66
2023/12/24 01:18:13;;;;;;;2.38;0.82;;;11.10;94.10;;;;;;5026615;28;20031;-67
2023/12/24 01:20:39;;;;;;;1.63;0.82;;;11.10;94.10;;;;;;5028016;28;20048;-67
2023/12/24 01:23:05;;;;;;;3.33;1.02;;;11.10;94.10;;;;;;5028003;28;20017;-67
2023/12/24 01:25:31;;;;;;;2.15;0.88;;;11.10;94.10;;;;;;5029194;28;20487;-67
2023/12/24 01:27:56;;;;;;;2.00;1.00;;;11.00;93.90;;;;;;5030137;28;20468;-66
2023/12/24 01:30:22;;;;;;;1.77;1.00;;;11.10;93.80;;;;;;5027435;28;20025;-65
2023/12/24 01:32:47;;;;;;;1.40;0.80;;;11.10;93.80;;;;;;5029210;28;20464;-67
2023/12/24 01:35:13;;;;;;;2.53;1.00;;;11.10;93.80;;;;;;5026665;28;20037;-64
2023/12/24 01:37:38;;;;;;;1.20;0.90;;;11.00;93.80;;;;;;5026226;28;20113;-67
2023/12/24 01:40:05;;;;;;;1.38;0.90;;;11.00;93.80;;;;;;5026300;28;20100;-65
2023/12/24 01:42:30;;;;;;;1.88;0.90;;;11.00;93.90;;;;;;5024843;28;20038;-66
2023/12/24 01:44:56;;;;;;;2.55;1.20;;;11.00;93.90;;;;;;5025986;28;20125;-67
2023/12/24 01:47:22;;;;;;;6.40;1.20;;;11.00;93.90;;;;;;5028141;28;20026;-67
2023/12/24 01:49:49;;;;;;;3.55;1.17;;;11.00;93.90;;;;;;5027425;28;20116;-66
2023/12/24 01:52:15;;;;;;;2.75;1.20;;;10.90;93.90;;;;;;5024743;28;20021;-66
2023/12/24 01:54:41;;;;;;;1.50;0.90;;;10.90;94.00;;;;;;5023601;28;20033;-67
2023/12/24 01:57:07;;;;;;;4.05;1.00;;;10.80;94.10;;;;;;5032499;28;20159;-65
2023/12/24 01:59:33;;;;;;;1.45;1.02;;;10.80;94.20;;;;;;5027189;28;20023;-67
2023/12/24 02:01:59;;;;;;;3.13;1.60;;;10.80;94.40;;;;;;5027989;28;20472;-67
2023/12/24 02:04:25;;;;;;;2.20;1.10;;;10.80;94.40;;;;;;5019143;28;20100;-66
2023/12/24 02:06:51;;;;;;;2.60;1.20;;;10.70;94.50;;;;;;5026232;28;20156;-66
2023/12/24 02:09:16;;;;;;;2.63;1.00;;;10.70;94.60;;;;;;5033509;28;20512;-66
2023/12/24 02:11:42;;;;;;;4.25;1.25;;;10.70;94.70;;;;;;5036053;28;20029;-66
2023/12/24 02:14:07;;;;;;;2.75;1.45;;;10.60;94.80;;;;;;5026881;28;20029;-66
2023/12/24 02:16:36;;;;;;;1.05;1.00;;;10.60;95.00;;;;;;5027937;28;20032;-67
2023/12/24 02:19:03;;;;;;;3.72;1.50;;;10.60;95.10;;;;;;5023301;28;20038;-65
2023/12/24 02:21:28;;;;;;;2.15;1.20;;;10.50;95.40;;;;;;5017860;28;20041;-66
2023/12/24 02:23:54;;;;;;;2.50;1.30;;;10.50;95.60;;;;;;5023495;28;20068;-66
2023/12/24 02:26:30;;;;;;;5.68;1.30;;;10.50;95.80;;;;;;5020219;28;20590;-66
2023/12/24 02:29:25;;;;;;;2.10;1.10;;;10.50;95.90;;;;;;5022155;28;20041;-67
2023/12/24 02:31:54;;;;;;;2.40;1.00;;;10.50;96.00;;;;;;5022420;28;20017;-67
2023/12/24 02:34:21;;;;;;;2.13;1.10;;;10.50;96.10;;;;;;5016580;28;20022;-67
2023/12/24 02:36:48;;;;;;;1.80;1.00;;;10.50;96.40;;;;;;5027728;28;20056;-67
2023/12/24 02:39:14;;;;;;;3.10;1.20;;;10.50;96.30;;;;;;5025240;28;20026;-66
2023/12/24 02:41:40;;;;;;;2.10;1.20;;;10.50;96.40;;;;;;5027084;28;20032;-67
2023/12/24 02:44:06;;;;;;;6.80;2.17;;;10.50;96.40;;;;;;5021225;28;20025;-66
2023/12/24 02:46:31;;;;;;;3.83;1.70;;;10.50;96.60;;;;;;5022627;28;20472;-65
2023/12/24 02:48:57;;;;;;;4.05;1.70;;;10.50;96.70;;;;;;5021967;28;20660;-68
2023/12/24 02:51:22;;;;;;;2.15;1.40;;;10.50;96.60;;;;;;5021977;28;20033;-67
2023/12/24 02:53:48;;;;;;;3.92;1.60;;;10.50;96.80;;;;;;5024809;28;20025;-66
2023/12/24 02:56:13;;;;;;;6.55;2.05;;;10.50;96.90;;;;;;5027729;28;20361;-67
2023/12/24 02:58:39;;;;;;;1.92;1.30;;;10.50;97.10;;;;;;5027188;28;20040;-66
2023/12/24 03:01:04;;;;;;;2.22;1.40;;;10.50;97.10;;;;;;5022959;28;20092;-67
2023/12/24 03:03:30;;;;;;;2.30;1.50;;;10.50;97.20;;;;;;5019977;28;20105;-65
2023/12/24 03:05:55;;;;;;;3.92;1.50;;;10.50;97.30;;;;;;5021933;28;20593;-67
2023/12/24 03:08:22;;;;;;;2.60;1.38;;;10.50;97.40;;;;;;5026742;28;20025;-67
2023/12/24 03:10:47;;;;;;;2.83;2.00;;;10.50;97.50;;;;;;5023497;28;20032;-67
2023/12/24 03:13:13;;;;;;;4.50;2.15;;;10.50;97.80;;;;;;5023450;28;20030;-67
2023/12/24 03:15:38;;;;;;;3.15;1.92;;;10.50;97.90;;;;;;5025087;28;20382;-67
2023/12/24 03:18:04;;;;;;;3.75;1.90;;;10.50;98.00;;;;;;5026688;28;20412;-65
2023/12/24 03:20:30;;;;;;;2.58;1.50;;;10.50;98.50;;;;;;5026640;28;20022;-66
2023/12/24 03:22:55;;;;;;;2.10;1.40;;;10.50;98.20;;;;;;5028579;28;20029;-66
2023/12/24 03:25:21;;;;;;;4.25;1.33;;;10.60;98.30;;;;;;5017053;28;20527;-66
2023/12/24 03:27:46;;;;;;;2.20;1.67;;;10.60;98.40;;;;;;5029199;28;20032;-67
2023/12/24 03:30:12;;;;;;;2.65;1.83;;;10.60;98.50;;;;;;5023744;28;20025;-64
2023/12/24 03:32:38;;;;;;;2.00;1.63;;;10.60;98.60;;;;;;5023931;28;20030;-67
2023/12/24 03:35:04;;;;;;;1.52;1.42;;;10.70;98.60;;;;;;5025967;28;20037;-67
2023/12/24 03:37:29;;;;;;;2.00;1.50;;;10.70;98.60;;;;;;5015630;28;20709;-67
2023/12/24 03:39:55;;;;;;;1.50;1.23;;;10.70;98.60;;;;;;5024730;28;20030;-67
2023/12/24 03:42:20;;;;;;;1.33;1.20;;;10.70;98.70;;;;;;5021363;28;20028;-67
2023/12/24 03:44:46;;;;;;;1.20;1.10;;;10.70;98.70;;;;;;5024192;28;20124;-68
2023/12/24 03:47:11;;;;;;;2.28;1.33;;;10.70;98.80;;;;;;5023564;28;20060;-67
2023/12/24 03:49:37;;;;;;;2.20;1.00;;;10.80;98.80;;;;;;5021602;28;20116;-65
2023/12/24 03:52:02;;;;;;;2.05;1.30;;;10.80;98.80;;;;;;5018295;28;20076;-68
2023/12/24 03:54:28;;;;;;;1.60;1.40;;;10.80;98.90;;;;;;5025740;28;20603;-68
2023/12/24 03:56:53;;;;;;;1.55;1.13;;;10.80;99.00;;;;;;5017392;28;20022;-66
2023/12/24 03:59:19;;;;;;;1.50;1.10;;;10.80;99.20;;;;;;5016488;28;20385;-64
2023/12/24 04:01:46;;;;;;;0.85;0.85;;;10.80;99.20;;;;;;5019966;28;20041;-67
2023/12/24 04:04:11;;;;;;;1.30;0.93;;;10.80;99.20;;;;;;5024103;28;20031;-66
2023/12/24 04:06:37;;;;;;;1.00;0.90;;;10.90;99.30;;;;;;5029733;28;20396;-65
2023/12/24 04:09:03;;;;;;;0.75;0.75;;;10.90;99.30;;;;;;5018788;28;20726;-68
2023/12/24 04:11:29;;;;;;;0.80;0.80;;;10.90;99.30;;;;;;5023234;28;20060;-67
2023/12/24 04:13:54;;;;;;;0.90;0.80;;;10.90;99.50;;;;;;5019828;28;20482;-67
2023/12/24 04:16:20;;;;;;;0.70;0.70;;;10.90;99.50;;;;;;5019870;28;20511;-67
2023/12/24 04:18:46;;;;;;;1.67;0.70;;;10.90;99.60;;;;;;5022410;28;20038;-67
2023/12/24 04:21:11;;;;;;;0.70;0.63;;;10.90;99.60;;;;;;5031144;28;20022;-66
2023/12/24 04:23:37;;;;;;;0.70;0.70;;;10.90;99.70;;;;;;5026713;28;20095;-68
2023/12/24 04:26:02;;;;;;;0.60;0.60;;;10.90;99.70;;;;;;5024354;28;20093;-67
2023/12/24 04:28:28;;;;;;;0.60;0.60;;;11.00;99.80;;;;;;5023737;28;20042;-67
2023/12/24 04:30:53;;;;;;;0.47;0.47;;;11.00;99.80;;;;;;5026190;28;20471;-65
2023/12/24 04:33:19;;;;;;;0.73;0.40;;;11.00;99.80;;;;;;5025546;28;20476;-66
2023/12/24 04:35:45;;;;;;;0.50;0.50;;;11.00;99.90;;;;;;5027905;28;20396;-66
2023/12/24 04:38:10;;;;;;;0.40;0.40;;;11.00;99.80;;;;;;5027152;28;20042;-67
2023/12/24 04:40:36;;;;;;;0.68;0.57;;;11.00;99.80;;;;;;5025541;28;20075;-67
2023/12/24 04:43:02;;;;;;;0.50;0.50;;;11.00;99.80;;;;;;5023908;28;20056;-65
2023/12/24 04:45:27;;;;;;;0.47;0.47;;;11.10;99.80;;;;;;5024516;28;20037;-67
2023/12/24 04:47:55;;;;;;;0.40;0.40;;;11.10;99.80;;;;;;5029734;28;20496;-67
2023/12/24 04:50:21;;;;;;;0.50;0.50;;;11.10;99.80;;;;;;5019782;28;20044;-67
2023/12/24 04:52:47;;;;;;;0.50;0.50;;;11.10;99.90;;;;;;5031236;28;20057;-69
2023/12/24 04:55:12;;;;;;;0.50;0.50;;;11.20;99.90;;;;;;5031961;28;20479;-66
2023/12/24 04:57:38;;;;;;;0.40;0.40;;;11.10;99.90;;;;;;5021880;28;20036;-65
2023/12/24 05:00:05;;;;;;;0.50;0.50;;;11.10;99.90;;;;;;5027371;28;20021;-67
2023/12/24 05:02:33;;;;;;;0.43;0.43;;;11.10;99.90;;;;;;5025974;28;20544;-68
2023/12/24 05:04:59;;;;;;;0.50;0.50;;;11.10;99.90;;;;;;5021751;28;20044;-65
2023/12/24 05:07:24;;;;;;;0.60;0.60;;;11.10;99.90;;;;;;5023374;28;20506;-66
2023/12/24 05:09:51;;;;;;;0.50;0.50;;;11.10;99.90;;;;;;5020653;28;20034;-64
2023/12/24 05:12:16;;;;;;;0.68;0.68;;;11.10;99.90;;;;;;5020085;28;20055;-65
2023/12/24 05:14:42;;;;;;;0.43;0.43;;;11.10;99.90;;;;;;5020007;28;20061;-67
2023/12/24 05:17:08;;;;;;;0.40;0.40;;;11.20;99.90;;;;;;5018558;28;20045;-67
2023/12/24 05:19:33;;;;;;;0.40;0.40;;;11.20;99.90;;;;;;5018922;28;20032;-64
2023/12/24 05:21:59;;;;;;;0.40;0.40;;;11.20;99.90;;;;;;5021945;28;20022;-65
2023/12/24 05:24:24;;;;;;;0.55;0.50;;;11.20;99.90;;;;;;5025754;28;20026;-67
2023/12/24 05:26:50;;;;;;;0.40;0.40;;;11.30;99.90;;;;;;5024044;28;20042;-67
2023/12/24 05:29:15;;;;;;;0.43;0.40;;;11.30;99.90;;;;;;5021040;28;20025;-66
2023/12/24 05:31:42;;;;;;;0.60;0.60;;;11.30;99.90;;;;;;5023001;28;20033;-65
2023/12/24 05:34:08;;;;;;;0.40;0.40;;;11.30;99.90;;;;;;5022780;28;20083;-66
2023/12/24 05:36:35;;;;;;;1.05;0.43;;;11.30;99.90;;;;;;5024169;28;20030;-63
2023/12/24 05:39:01;;;;;;;0.80;0.50;;;11.30;99.90;;;;;;5031767;28;20056;-64
2023/12/24 05:41:27;;;;;;;0.82;0.52;;;11.30;99.90;;;;;;5023514;28;20045;-64
2023/12/24 05:43:53;;;;;;;0.50;0.50;;;11.30;99.90;;;;;;5025392;28;20022;-64
2023/12/24 05:46:20;;;;;;;0.70;0.40;;;11.30;99.90;;;;;;5024412;28;20017;-65
2023/12/24 05:48:46;;;;;;;0.50;0.50;;;11.30;99.90;;;;;;5019306;28;20095;-66
2023/12/24 05:51:11;;;;;;;1.85;0.50;;;11.30;99.90;;;;;;5025104;28;20025;-65
2023/12/24 05:53:37;;;;;;;0.60;0.47;;;11.40;99.90;;;;;;5021377;28;20029;-64
2023/12/24 05:56:03;;;;;;;0.40;0.40;;;11.40;99.90;;;;;;5026115;28;20528;-65
2023/12/24 05:58:29;;;;;;;0.70;0.40;;;11.40;99.90;;;;;;5029761;28;20471;-64
2023/12/24 06:00:54;;;;;;;0.43;0.40;;;11.50;99.90;;;;;;5028565;28;20041;-68
2023/12/24 06:03:20;;;;;;;0.40;0.40;;;11.50;99.90;;;;;;5018732;28;20025;-68
2023/12/24 06:05:46;;;;;;;0.40;0.40;;;11.50;99.90;;;;;;5026504;28;20036;-67
2023/12/24 06:08:17;;;;;;;1.20;0.47;;;11.50;99.90;;;;;;5023569;28;20159;-68
2023/12/24 06:10:43;;;;;;;2.10;0.70;;;11.60;99.90;;;;;;5019006;28;20069;-66
2023/12/24 06:13:09;;;;;;;0.30;0.30;;;11.60;99.90;;;;;;5023513;28;20534;-66
2023/12/24 06:15:35;;;;;;;0.50;0.50;;;11.60;99.90;;;;;;5019050;28;20340;-66
2023/12/24 06:18:01;;;;;;;1.08;0.50;;;11.60;99.90;;;;;;5023634;28;20408;-69
2023/12/24 06:20:29;;;;;;;0.77;0.60;;;11.60;99.90;;;;;;5018807;28;20045;-66
2023/12/24 06:22:55;;;;;;;0.60;0.57;;;11.60;99.90;;;;;;5024063;28;20116;-66
2023/12/24 06:25:22;;;;;;;0.60;0.60;;;11.60;99.90;;;;;;5026788;28;20108;-66
2023/12/24 06:27:48;;;;;;;0.40;0.40;;;11.70;99.90;;;;;;5022163;28;20500;-65
2023/12/24 06:30:14;;;;;;;0.85;0.50;;;11.70;99.90;;;;;;5021463;28;20109;-66
2023/12/24 06:32:44;;;;;;;0.50;0.50;;;11.70;99.90;;;;;;5025864;28;20484;-66
2023/12/24 06:35:10;;;;;;;0.50;0.50;;;11.70;99.90;;;;;;5019930;28;20021;-66
2023/12/24 06:37:35;;;;;;;0.90;0.60;;;11.70;99.90;;;;;;5028831;28;20044;-66
2023/12/24 06:40:01;;;;;;;1.55;0.50;;;11.70;99.90;;;;;;5020773;28;20029;-63
2023/12/24 06:42:27;;;;;;;0.77;0.50;;;11.70;99.90;;;;;;5021023;28;20108;-65
2023/12/24 06:44:53;;;;;;;1.58;0.65;;;11.70;99.90;;;;;;5020556;28;20079;-65
2023/12/24 06:47:18;;;;;;;0.60;0.60;;;11.70;99.90;;;;;;5022618;28;20086;-65
2023/12/24 06:49:44;;;;;;;0.63;0.50;;;11.70;99.90;;;;;;5029080;28;20049;-64
2023/12/24 06:52:13;;;;;;;0.40;0.40;;;11.80;99.90;;;;;;5024201;28;20029;-64
2023/12/24 06:54:39;;;;;;;0.50;0.50;;;11.80;99.90;;;;;;5022589;28;20076;-65
2023/12/24 06:57:07;;;;;;;0.85;0.60;;;11.80;99.90;;;;;;5022401;28;20116;-66
2023/12/24 06:59:32;;;;;;;1.35;0.50;;;11.80;99.90;;;;;;5023701;28;20017;-66
2023/12/24 07:01:59;;;;;;;1.60;0.50;;;11.80;99.90;;;;;;5021635;28;20025;-65
2023/12/24 07:04:26;;;;;;;1.40;0.60;;;11.80;99.90;;;;;;5019633;28;20145;-66
2023/12/24 07:06:51;;;;;;;0.93;0.52;;;11.80;99.90;;;;;;5026516;28;20030;-65
2023/12/24 07:09:17;;;;;;;0.68;0.43;;;11.80;99.90;;;;;;5028158;28;20029;-65
2023/12/24 07:11:44;;;;;;;0.50;0.50;;;11.80;99.90;;;;;;5016880;28;20026;-66
2023/12/24 07:14:09;;;;;;;1.20;0.50;;;11.80;99.90;;;;;;5015308;28;20448;-66
2023/12/24 07:16:35;;;;;;;0.70;0.50;;;11.80;99.90;;;;;;5021198;28;20061;-66
2023/12/24 07:19:05;;;;;;;2.03;0.75;;;11.80;99.90;;;;;;5020466;28;20084;-65
2023/12/24 07:21:31;;;;;;;0.45;0.40;;;11.80;99.90;;;;;;5022030;28;20112;-65
2023/12/24 07:23:56;;;;;;;0.63;0.60;;;11.80;99.90;;;;;;5024572;28;20177;-64
2023/12/24 07:26:22;;;;;;;0.90;0.70;;;11.90;99.90;;;;;;5025449;28;20032;-67
2023/12/24 07:28:48;;;;;;;0.63;0.50;;;11.90;99.90;;;;;;5029160;28;20032;-66
2023/12/24 07:31:14;;;;;;;1.00;0.60;;;11.90;99.90;;;;;;5020242;28;20038;-65
2023/12/24 07:33:40;;;;;;;0.65;0.50;;;11.90;99.90;;;;;;5018312;28;20026;-65
2023/12/24 07:36:06;;;;;;;0.50;0.50;;;11.90;99.90;;;;;;5017687;28;20136;-65
2023/12/24 07:38:32;;;;;;;0.93;0.52;;;11.90;99.90;;;;;;5032254;28;20032;-65
2023/12/24 07:40:57;;;;;;;0.50;0.50;;;11.90;99.90;;;;;;5020603;28;20037;-64
2023/12/24 07:43:23;;;;;;;1.25;0.50;;;11.90;99.90;;;;;;5022695;28;20021;-65
2023/12/24 07:45:49;;;;;;;1.67;0.50;;;11.90;99.90;;;;;;5014689;28;20018;-66
2023/12/24 07:48:15;;;;;;;0.73;0.50;;;11.90;99.90;;;;;;5018826;28;20108;-66
2023/12/24 07:50:42;;;;;;;0.47;0.47;;;11.90;99.90;;;;;;5022515;28;20100;-67
2023/12/24 07:53:07;;;;;;;0.93;0.60;;;11.90;99.90;;;;;;5020717;28;20054;-67
2023/12/24 07:55:33;;;;;;;0.77;0.50;;;11.90;99.90;;;;;;5020004;28;20685;-67
2023/12/24 07:57:59;;;;;;;2.03;0.50;;;12.00;99.90;;;;;;5024994;28;20129;-67
2023/12/24 08:00:24;;;;;;;1.25;0.80;;;12.00;99.90;;;;;;5018360;28;20061;-66
2023/12/24 08:02:51;;;;;;;1.90;0.80;;;12.00;99.90;;;;;;5020470;28;20032;-66
2023/12/24 08:05:17;;;;;;;1.17;0.65;;;12.00;99.90;;;;;;5028279;28;20067;-65
2023/12/24 08:07:43;;;;;;;2.90;0.73;;;12.00;99.90;;;;;;5028029;28;20030;-65
2023/12/24 08:10:08;;;;;;;0.73;0.50;;;12.00;99.90;;;;;;5022448;28;20393;-66
2023/12/24 08:12:34;;;;;;;0.68;0.50;;;12.00;99.90;;;;;;5028199;28;20037;-65
2023/12/24 08:15:00;;;;;;;1.90;0.60;;;12.00;99.90;;;;;;5026664;28;20017;-65
2023/12/24 08:17:25;;;;;;;0.98;0.50;;;12.00;99.90;;;;;;5025959;28;20554;-65
2023/12/24 08:19:51;;;;;;;1.17;0.57;;;12.00;99.90;;;;;;5026062;28;20033;-65
2023/12/24 08:22:18;;;;;;;1.10;0.55;;;12.00;99.90;;;;;;5029340;28;20021;-66
2023/12/24 08:24:43;;;;;;;0.88;0.63;;;12.00;99.90;;;;;;5023897;28;20028;-65
2023/12/24 08:27:09;;;;;;;0.98;0.60;;;12.00;99.90;;;;;;5022968;28;20041;-65
2023/12/24 08:29:35;;;;;;;1.05;0.60;;;12.00;99.90;;;;;;5025417;28;20032;-65
2023/12/24 08:32:01;;;;;;;0.93;0.52;;;12.10;99.90;;;;;;5030115;28;20346;-65
2023/12/24 08:34:26;;;;;;;0.90;0.60;;;12.00;99.90;;;;;;5024855;28;20040;-65
2023/12/24 08:36:52;;;;;;;0.52;0.52;;;12.10;99.90;;;;;;5029263;28;20032;-63
2023/12/24 08:39:17;;;;;;;1.48;0.70;;;12.10;99.90;;;;;;5023970;28;20099;-66
2023/12/24 08:41:44;;;;;;;1.23;0.63;;;12.10;99.90;;;;;;5026126;28;20013;-66
2023/12/24 08:44:09;;;;;;;1.85;0.70;;;12.10;99.90;;;;;;5023471;28;20033;-66
2023/12/24 08:46:35;;;;;;;0.52;0.50;;;12.10;99.90;;;;;;5025564;28;20080;-66
2023/12/24 08:49:00;;;;;;;1.27;0.70;;;12.20;99.90;;;;;;5022189;28;20022;-64
2023/12/24 08:51:26;;;;;;;0.75;0.70;;;12.10;99.90;;;;;;5019684;28;20025;-67
2023/12/24 08:53:51;;;;;;;1.52;0.80;;;12.10;99.90;;;;;;5022569;28;20123;-66
2023/12/24 08:56:17;;;;;;;1.17;0.68;;;12.20;99.90;;;;;;5021771;28;20056;-65
2023/12/24 08:58:43;;;;;;;0.52;0.52;;;12.20;99.90;;;;;;5022475;28;20026;-64
2023/12/24 09:01:08;;;;;;;1.23;0.70;;;12.20;99.90;;;;;;5020498;28;20082;-67
2023/12/24 09:03:34;;;;;;;0.93;0.60;;;12.10;99.90;;;;;;5023117;28;20383;-65
2023/12/24 09:05:59;;;;;;;0.82;0.70;;;12.20;99.90;;;;;;5020642;28;20512;-66
2023/12/24 09:08:25;;;;;;;0.70;0.70;;;12.20;99.90;;;;;;5020542;28;20427;-66
2023/12/24 09:10:51;;;;;;;0.68;0.68;;;12.20;99.90;;;;;;5023331;28;20032;-67
2023/12/24 09:13:16;;;;;;;0.50;0.40;;;12.20;99.90;;;;;;5025367;28;20525;-68
2023/12/24 09:15:42;;;;;;;0.50;0.50;;;12.20;99.90;;;;;;5022134;28;20261;-66
2023/12/24 09:18:07;;;;;;;0.98;0.90;;;12.20;99.90;;;;;;5021972;28;20026;-66
2023/12/24 09:20:33;;;;;;;0.50;0.50;;;12.30;99.90;;;;;;5018033;28;20029;-66
2023/12/24 09:22:58;;;;;;;0.40;0.40;;;12.30;99.90;;;;;;5020108;28;20025;-65
2023/12/24 09:25:24;;;;;;;0.50;0.50;;;12.30;99.90;;;;;;5022840;28;20037;-67
2023/12/24 09:27:50;;;;;;;0.40;0.40;;;12.30;99.90;;;;;;5022996;28;20101;-67
2023/12/24 09:30:16;;;;;;;0.68;0.50;;;12.30;99.90;;;;;;5023213;28;20542;-66
2023/12/24 09:32:43;;;;;;;0.50;0.50;;;12.30;99.90;;;;;;5023593;28;20034;-64
2023/12/24 09:35:09;;;;;;;0.40;0.40;;;12.30;99.90;;;;;;5024161;28;20097;-65
2023/12/24 09:37:34;;;;;;;0.68;0.60;;;12.30;99.90;;;;;;5023507;28;20108;-66
2023/12/24 09:40:00;;;;;;;0.57;0.50;;;12.30;99.90;;;;;;5023324;28;20028;-65
2023/12/24 09:42:26;;;;;;;1.27;0.50;;;12.40;99.90;;;;;;5022820;28;20620;-66
2023/12/24 09:44:51;;;;;;;1.38;0.60;;;12.40;99.90;;;;;;5020532;28;20061;-67
2023/12/24 09:47:17;;;;;;;0.75;0.60;;;12.40;99.90;;;;;;5017261;28;20041;-65
2023/12/24 09:49:42;;;;;;;1.00;0.68;;;12.40;99.90;;;;;;5017662;28;20022;-66
2023/12/24 09:52:08;;;;;;;1.23;0.60;;;12.40;99.90;;;;;;5021573;28;20036;-67
2023/12/24 09:54:35;;;;;;;1.05;0.70;;;12.40;99.90;;;;;;5026557;28;20037;-67
2023/12/24 09:57:00;;;;;;;0.75;0.75;;;12.40;99.90;;;;;;5023803;28;20028;-66
2023/12/24 09:59:26;;;;;;;2.47;0.85;;;12.40;99.90;;;;;;5023406;28;20022;-66
2023/12/24 10:01:51;;;;;;;0.93;0.65;;;12.40;99.90;;;;;;5020927;28;20380;-65
2023/12/24 10:04:17;;;;;;;2.33;0.80;;;12.40;99.90;;;;;;5023797;28;20033;-66
2023/12/24 10:06:56;;;;;;;1.80;0.90;;;12.50;99.90;;;;;;5022263;28;20122;-66
2023/12/24 10:09:24;;;;;;;4.88;1.10;;;12.40;99.90;;;;;;5021205;28;20033;-65
2023/12/24 10:12:04;;;;;;;3.85;1.13;;;12.40;99.90;;;;;;5020388;28;20044;-67
2023/12/24 10:14:29;;;;;;;3.70;1.30;;;12.40;99.90;;;;;;5018606;28;20038;-67
2023/12/24 10:16:55;;;;;;;6.43;1.63;;;12.50;99.90;;;;;;5018197;28;20032;-66
2023/12/24 10:19:24;;;;;;;4.28;1.10;;;12.50;99.90;;;;;;5015956;28;20049;-65
2023/12/24 10:22:07;;;;;;;6.82;1.85;;;12.50;99.90;;;;;;5020949;28;20029;-67
2023/12/24 10:24:41;;;;;;;7.03;1.90;;;12.50;99.90;;;;;;5021008;28;20377;-65
2023/12/24 10:27:09;;;;;;;6.45;1.70;;;12.50;99.90;;;;;;5015231;28;20132;-66
2023/12/24 10:29:37;;;;;;;4.75;1.60;;;12.50;99.90;;;;;;5017943;28;20034;-66
2023/12/24 10:32:03;;;;;;;5.47;1.50;;;12.50;99.90;;;;;;5017103;28;20029;-63
2023/12/24 10:34:30;;;;;;;7.43;1.95;;;12.60;99.90;;;;;;5017434;28;20396;-65
2023/12/24 10:36:58;;;;;;;9.10;1.98;;;12.60;99.90;;;;;;5024128;28;20070;-66
2023/12/24 10:39:24;;;;;;;4.72;1.50;;;12.60;99.90;;;;;;5021583;28;20026;-66
2023/12/24 10:41:59;;;;;;;7.57;1.83;;;12.60;99.90;;;;;;5018045;28;20125;-66
2023/12/24 10:44:24;;;;;;;7.82;1.92;;;12.70;99.90;;;;;;5018753;28;20052;-66
2023/12/24 10:46:50;;;;;;;6.65;1.50;;;12.70;99.90;;;;;;5016679;28;20633;-65
2023/12/24 10:49:16;;;;;;;7.88;1.60;;;12.70;99.90;;;;;;5017453;28;20026;-67
2023/12/24 10:51:42;;;;;;;10.27;1.80;;;12.70;99.90;;;;;;5017261;28;20082;-64
2023/12/24 10:54:08;;;;;;;8.40;2.05;;;12.70;99.90;;;;;;5024474;28;20454;-67
2023/12/24 10:56:46;;;;;;;9.18;1.75;;;12.70;99.90;;;;;;5025407;28;20048;-66
2023/12/24 10:59:50;;;;;;;8.10;1.70;;;12.80;99.90;;;;;;5027588;28;20026;-64
2023/12/24 11:02:16;;;;;;;12.15;2.35;;;12.80;99.90;;;;;;5016305;28;20476;-66
2023/12/24 11:04:47;;;;;;;7.80;1.40;;;12.80;99.90;;;;;;5022363;28;20401;-67
2023/12/24 11:07:34;;;;;;;10.15;1.85;;;12.80;99.90;;;;;;5023882;28;20561;-69
2023/12/24 11:10:01;;;;;;;8.15;1.73;;;12.90;99.90;;;;;;5024506;28;20068;-67
2023/12/24 11:12:40;;;;;;;7.93;2.55;;;12.90;99.90;;;;;;5019690;28;20052;-65
2023/12/24 11:15:08;;;;;;;7.28;1.77;;;12.90;99.90;;;;;;5029209;28;20218;-65
2023/12/24 11:17:35;;;;;;;8.02;1.70;;;12.90;99.90;;;;;;5023871;28;20029;-66
2023/12/24 11:20:23;;;;;;;5.18;1.50;;;12.90;99.90;;;;;;5020864;28;20033;-65
2023/12/24 11:23:03;;;;;;;5.93;1.80;;;12.90;99.90;;;;;;5023519;28;20058;-66
2023/12/24 11:25:37;;;;;;;7.65;2.65;;;12.90;99.90;;;;;;5024745;28;20427;-65
2023/12/24 11:28:04;;;;;;;7.57;2.17;;;12.90;99.90;;;;;;5022360;28;20044;-66
2023/12/24 11:30:29;;;;;;;4.63;1.33;;;12.90;99.90;;;;;;5023743;28;20104;-66
2023/12/24 11:32:55;;;;;;;6.18;1.50;;;12.90;99.90;;;;;;5021841;28;20137;-66
2023/12/24 11:35:52;;;;;;;4.90;1.30;;;12.90;99.90;;;;;;5020160;28;20038;-66
2023/12/24 11:38:35;;;;;;;3.15;1.38;;;13.00;99.90;;;;;;5022834;28;20819;-66
2023/12/24 11:41:10;;;;;;;3.42;1.15;;;13.00;99.90;;;;;;5024268;28;20030;-65
2023/12/24 11:43:37;;;;;;;3.80;1.55;;;13.00;99.90;;;;;;5020165;28;20040;-67
2023/12/24 11:46:03;;;;;;;3.75;1.20;;;13.10;99.90;;;;;;5023925;28;20022;-65
2023/12/24 11:48:30;;;;;;;3.75;1.20;;;13.10;99.90;;;;;;5024493;28;20522;-66
2023/12/24 11:51:03;;;;;;;5.78;1.50;;;13.00;99.90;;;;;;5020688;28;20025;-66
2023/12/24 11:53:33;;;;;;;4.55;1.92;;;13.10;99.90;;;;;;5021972;28;20399;-65
2023/12/24 11:56:13;;;;;;;6.30;2.28;;;13.10;99.90;;;;;;5024169;28;20036;-66
2023/12/24 11:59:02;;;;;;;4.18;1.60;;;13.00;99.90;;;;;;5019754;28;20029;-65
2023/12/24 12:01:34;;;;;;;3.35;1.65;;;13.00;99.90;;;;;;5012407;28;20048;-66
2023/12/24 12:04:01;;;;;;;2.70;1.38;;;13.10;99.90;;;;;;5025473;28;20101;-67
2023/12/24 12:06:31;;;;;;;4.13;1.67;;;13.00;99.90;;;;;;5024599;28;20026;-65
2023/12/24 12:09:00;;;;;;;3.47;1.60;;;13.00;99.90;;;;;;5016850;28;20030;-66
2023/12/24 12:11:26;;;;;;;4.07;1.70;;;13.10;99.90;;;;;;5021398;28;20491;-65
2023/12/24 12:13:52;;;;;;;1.95;1.40;;;13.10;99.90;;;;;;5019436;28;20127;-66
2023/12/24 12:16:17;;;;;;;3.15;1.58;;;13.00;99.90;;;;;;5020176;28;20051;-66
2023/12/24 12:18:43;;;;;;;2.70;1.63;;;13.10;99.90;;;;;;5023490;28;20037;-65
2023/12/24 12:21:12;;;;;;;1.98;1.27;;;13.10;99.90;;;;;;5021442;28;20020;-65
2023/12/24 12:23:40;;;;;;;1.23;1.13;;;13.00;99.90;;;;;;5022492;28;20033;-66
2023/12/24 12:26:07;;;;;;;1.55;1.10;;;13.10;99.90;;;;;;5022240;28;20022;-67
2023/12/24 12:28:36;;;;;;;2.15;1.15;;;13.10;99.90;;;;;;5024554;28;20685;-66
2023/12/24 12:31:02;;;;;;;2.17;1.02;;;13.10;99.90;;;;;;5023413;28;20117;-63
2023/12/24 12:33:28;;;;;;;2.25;1.20;;;13.10;99.90;;;;;;5022139;28;20034;-66
2023/12/24 12:35:55;;;;;;;1.08;1.00;;;13.10;99.90;;;;;;5020648;28;20072;-65
2023/12/24 12:38:23;;;;;;;2.13;1.40;;;13.10;99.90;;;;;;5023425;28;20032;-66
2023/12/24 12:40:50;;;;;;;2.03;1.23;;;13.10;99.90;;;;;;5025101;28;20026;-64
2023/12/24 12:43:17;;;;;;;2.10;1.30;;;13.10;99.90;;;;;;5027232;28;20029;-67